sensor_id;sensor_type;location;lat;lon;timestamp;temperature;humidity
25112;DHT22;13092;51.996;4.458;2022-11-18T00:01:18;10.30;99.90
25112;DHT22;13092;51.996;4.458;2022-11-18T00:03:47;10.30;99.90
25112;DHT22;13092;51.996;4.458;2022-11-18T00:06:17;10.30;99.90
25112;DHT22;13092;51.996;4.458;2022-11-18T00:08:45;10.30;99.90
25112;DHT22;13092;51.996;4.458;2022-11-18T00:11:16;10.20;99.90
25112;DHT22;13092;51.996;4.458;2022-11-18T00:14:05;10.20;99.90
25112;DHT22;13092;51.996;4.458;2022-11-18T00:16:45;10.20;99.90
25112;DHT22;13092;51.996;4.458;2022-11-18T00:19:14;10.20;99.90
25112;DHT22;13092;51.996;4.458;2022-11-18T00:21:42;10.20;99.90
25112;DHT22;13092;51.996;4.458;2022-11-18T00:24:10;10.20;99.90
25112;DHT22;13092;51.996;4.458;2022-11-18T00:26:40;10.20;99.90
25112;DHT22;13092;51.996;4.458;2022-11-18T00:29:08;10.40;99.90
25112;DHT22;13092;51.996;4.458;2022-11-18T00:31:37;10.10;99.90
25112;DHT22;13092;51.996;4.458;2022-11-18T00:34:05;10.20;99.90
25112;DHT22;13092;51.996;4.458;2022-11-18T00:36:36;10.10;99.90
25112;DHT22;13092;51.996;4.458;2022-11-18T00:39:04;10.10;99.90
25112;DHT22;13092;51.996;4.458;2022-11-18T00:41:32;10.10;99.90
25112;DHT22;13092;51.996;4.458;2022-11-18T00:44:16;10.10;99.90
25112;DHT22;13092;51.996;4.458;2022-11-18T00:46:43;10.00;99.90
25112;DHT22;13092;51.996;4.458;2022-11-18T00:49:11;10.10;99.90
25112;DHT22;13092;51.996;4.458;2022-11-18T00:51:40;10.10;99.90
25112;DHT22;13092;51.996;4.458;2022-11-18T00:54:08;10.00;99.90
25112;DHT22;13092;51.996;4.458;2022-11-18T00:56:36;10.00;99.90
25112;DHT22;13092;51.996;4.458;2022-11-18T00:59:04;10.00;99.90
25112;DHT22;13092;51.996;4.458;2022-11-18T01:01:34;10.00;99.90
25112;DHT22;13092;51.996;4.458;2022-11-18T01:04:03;10.10;99.90
25112;DHT22;13092;51.996;4.458;2022-11-18T01:06:32;10.00;99.90
25112;DHT22;13092;51.996;4.458;2022-11-18T01:09:00;10.10;99.90
25112;DHT22;13092;51.996;4.458;2022-11-18T01:11:29;10.10;99.90
25112;DHT22;13092;51.996;4.458;2022-11-18T01:14:14;10.00;99.90
25112;DHT22;13092;51.996;4.458;2022-11-18T01:16:44;10.00;99.90
25112;DHT22;13092;51.996;4.458;2022-11-18T01:19:16;10.00;99.90
25112;DHT22;13092;51.996;4.458;2022-11-18T01:21:45;10.00;99.90
25112;DHT22;13092;51.996;4.458;2022-11-18T01:24:14;10.00;99.90
25112;DHT22;13092;51.996;4.458;2022-11-18T01:26:42;10.00;99.90
25112;DHT22;13092;51.996;4.458;2022-11-18T01:29:10;10.00;99.90
25112;DHT22;13092;51.996;4.458;2022-11-18T01:31:38;10.00;99.90
25112;DHT22;13092;51.996;4.458;2022-11-18T01:34:28;10.00;99.90
25112;DHT22;13092;51.996;4.458;2022-11-18T01:36:56;10.00;99.90
25112;DHT22;13092;51.996;4.458;2022-11-18T01:39:24;10.00;99.90
25112;DHT22;13092;51.996;4.458;2022-11-18T01:41:52;10.00;99.90
25112;DHT22;13092;51.996;4.458;2022-11-18T01:44:55;9.90;99.90
25112;DHT22;13092;51.996;4.458;2022-11-18T01:47:26;9.90;99.90
25112;DHT22;13092;51.996;4.458;2022-11-18T01:49:58;10.10;99.90
25112;DHT22;13092;51.996;4.458;2022-11-18T01:52:28;9.90;99.90
25112;DHT22;13092;51.996;4.458;2022-11-18T01:54:58;9.90;99.90
25112;DHT22;13092;51.996;4.458;2022-11-18T01:57:29;9.90;99.90
25112;DHT22;13092;51.996;4.458;2022-11-18T02:00:00;9.90;99.90
25112;DHT22;13092;51.996;4.458;2022-11-18T02:02:31;9.80;99.90
25112;DHT22;13092;51.996;4.458;2022-11-18T02:05:02;9.80;99.90
25112;DHT22;13092;51.996;4.458;2022-11-18T02:07:32;9.80;99.90
25112;DHT22;13092;51.996;4.458;2022-11-18T02:10:04;9.80;99.90
25112;DHT22;13092;51.996;4.458;2022-11-18T02:12:32;9.80;99.90
25112;DHT22;13092;51.996;4.458;2022-11-18T02:15:01;9.80;99.90
25112;DHT22;13092;51.996;4.458;2022-11-18T02:17:41;9.80;99.90
25112;DHT22;13092;51.996;4.458;2022-11-18T02:20:30;9.80;99.90
25112;DHT22;13092;51.996;4.458;2022-11-18T02:23:20;9.80;99.90
25112;DHT22;13092;51.996;4.458;2022-11-18T02:26:08;9.80;99.90
25112;DHT22;13092;51.996;4.458;2022-11-18T02:28:58;9.80;99.90
25112;DHT22;13092;51.996;4.458;2022-11-18T02:31:31;9.60;99.90
25112;DHT22;13092;51.996;4.458;2022-11-18T02:34:04;9.70;99.90
25112;DHT22;13092;51.996;4.458;2022-11-18T02:36:39;9.70;99.90
25112;DHT22;13092;51.996;4.458;2022-11-18T02:39:12;9.70;99.90
25112;DHT22;13092;51.996;4.458;2022-11-18T02:41:45;9.70;99.90
25112;DHT22;13092;51.996;4.458;2022-11-18T02:44:16;9.80;99.90
25112;DHT22;13092;51.996;4.458;2022-11-18T02:46:48;9.70;99.90
25112;DHT22;13092;51.996;4.458;2022-11-18T02:49:21;9.60;99.90
25112;DHT22;13092;51.996;4.458;2022-11-18T02:51:50;9.70;99.90
25112;DHT22;13092;51.996;4.458;2022-11-18T02:54:20;9.60;99.90
25112;DHT22;13092;51.996;4.458;2022-11-18T02:56:50;9.60;99.90
25112;DHT22;13092;51.996;4.458;2022-11-18T02:59:20;9.60;99.90
25112;DHT22;13092;51.996;4.458;2022-11-18T03:01:48;9.60;99.90
25112;DHT22;13092;51.996;4.458;2022-11-18T03:04:17;9.60;99.90
25112;DHT22;13092;51.996;4.458;2022-11-18T03:06:49;9.60;99.90
25112;DHT22;13092;51.996;4.458;2022-11-18T03:09:23;9.60;99.90
25112;DHT22;13092;51.996;4.458;2022-11-18T03:11:59;9.60;99.90
25112;DHT22;13092;51.996;4.458;2022-11-18T03:14:37;9.60;99.90
25112;DHT22;13092;51.996;4.458;2022-11-18T03:17:10;9.60;99.90
25112;DHT22;13092;51.996;4.458;2022-11-18T03:19:56;9.60;99.90
25112;DHT22;13092;51.996;4.458;2022-11-18T03:22:33;9.60;99.90
25112;DHT22;13092;51.996;4.458;2022-11-18T03:25:05;9.50;99.90
25112;DHT22;13092;51.996;4.458;2022-11-18T03:27:37;9.60;99.90
25112;DHT22;13092;51.996;4.458;2022-11-18T03:30:15;9.60;99.90
25112;DHT22;13092;51.996;4.458;2022-11-18T03:32:45;9.60;99.90
25112;DHT22;13092;51.996;4.458;2022-11-18T03:35:18;9.70;99.90
25112;DHT22;13092;51.996;4.458;2022-11-18T03:37:48;9.70;99.90
25112;DHT22;13092;51.996;4.458;2022-11-18T03:40:20;9.80;99.90
25112;DHT22;13092;51.996;4.458;2022-11-18T03:42:52;9.70;99.90
25112;DHT22;13092;51.996;4.458;2022-11-18T03:45:25;9.80;99.90
25112;DHT22;13092;51.996;4.458;2022-11-18T03:47:59;9.80;99.90
25112;DHT22;13092;51.996;4.458;2022-11-18T03:50:31;9.80;99.90
25112;DHT22;13092;51.996;4.458;2022-11-18T03:53:02;9.90;99.90
25112;DHT22;13092;51.996;4.458;2022-11-18T03:55:34;9.90;99.90
25112;DHT22;13092;51.996;4.458;2022-11-18T03:58:06;9.90;99.90
25112;DHT22;13092;51.996;4.458;2022-11-18T04:00:39;9.80;99.90
25112;DHT22;13092;51.996;4.458;2022-11-18T04:03:09;9.90;99.90
25112;DHT22;13092;51.996;4.458;2022-11-18T04:05:39;9.90;99.90
25112;DHT22;13092;51.996;4.458;2022-11-18T04:08:10;9.80;99.90
25112;DHT22;13092;51.996;4.458;2022-11-18T04:10:44;9.80;99.90
25112;DHT22;13092;51.996;4.458;2022-11-18T04:13:16;9.80;99.90
25112;DHT22;13092;51.996;4.458;2022-11-18T04:15:47;9.80;99.90
25112;DHT22;13092;51.996;4.458;2022-11-18T04:18:16;9.80;99.90
25112;DHT22;13092;51.996;4.458;2022-11-18T04:20:45;9.80;99.90
25112;DHT22;13092;51.996;4.458;2022-11-18T04:23:13;9.70;99.90
25112;DHT22;13092;51.996;4.458;2022-11-18T04:25:43;9.80;99.90
25112;DHT22;13092;51.996;4.458;2022-11-18T04:28:11;9.90;99.90
25112;DHT22;13092;51.996;4.458;2022-11-18T04:30:39;9.80;99.90
25112;DHT22;13092;51.996;4.458;2022-11-18T04:33:08;9.80;99.90
25112;DHT22;13092;51.996;4.458;2022-11-18T04:35:36;9.80;99.90
25112;DHT22;13092;51.996;4.458;2022-11-18T04:38:04;9.80;99.90
25112;DHT22;13092;51.996;4.458;2022-11-18T04:40:33;9.90;99.90
25112;DHT22;13092;51.996;4.458;2022-11-18T04:43:01;10.00;99.90
25112;DHT22;13092;51.996;4.458;2022-11-18T04:45:29;9.80;99.90
25112;DHT22;13092;51.996;4.458;2022-11-18T04:47:57;9.70;99.90
25112;DHT22;13092;51.996;4.458;2022-11-18T04:50:31;9.80;99.90
25112;DHT22;13092;51.996;4.458;2022-11-18T04:52:58;9.80;99.90
25112;DHT22;13092;51.996;4.458;2022-11-18T04:55:26;9.80;99.90
25112;DHT22;13092;51.996;4.458;2022-11-18T04:57:54;9.80;99.90
25112;DHT22;13092;51.996;4.458;2022-11-18T05:00:22;9.80;99.90
25112;DHT22;13092;51.996;4.458;2022-11-18T05:02:50;9.60;99.90
25112;DHT22;13092;51.996;4.458;2022-11-18T05:05:18;9.80;99.90
25112;DHT22;13092;51.996;4.458;2022-11-18T05:07:48;9.60;99.90
25112;DHT22;13092;51.996;4.458;2022-11-18T05:10:17;9.70;99.90
25112;DHT22;13092;51.996;4.458;2022-11-18T05:12:45;9.70;99.90
25112;DHT22;13092;51.996;4.458;2022-11-18T05:15:15;9.70;99.90
25112;DHT22;13092;51.996;4.458;2022-11-18T05:17:44;9.70;99.90
25112;DHT22;13092;51.996;4.458;2022-11-18T05:20:13;9.70;99.90
25112;DHT22;13092;51.996;4.458;2022-11-18T05:22:41;9.70;99.90
25112;DHT22;13092;51.996;4.458;2022-11-18T05:25:11;9.70;99.90
25112;DHT22;13092;51.996;4.458;2022-11-18T05:27:39;9.70;99.90
25112;DHT22;13092;51.996;4.458;2022-11-18T05:30:08;9.70;99.90
25112;DHT22;13092;51.996;4.458;2022-11-18T05:32:36;9.60;99.90
25112;DHT22;13092;51.996;4.458;2022-11-18T05:35:05;9.50;99.90
25112;DHT22;13092;51.996;4.458;2022-11-18T05:37:33;9.60;99.90
25112;DHT22;13092;51.996;4.458;2022-11-18T05:40:01;9.60;99.90
25112;DHT22;13092;51.996;4.458;2022-11-18T05:42:30;9.60;99.90
25112;DHT22;13092;51.996;4.458;2022-11-18T05:45:15;9.60;99.90
25112;DHT22;13092;51.996;4.458;2022-11-18T05:47:44;9.80;99.90
25112;DHT22;13092;51.996;4.458;2022-11-18T05:50:31;9.50;99.90
25112;DHT22;13092;51.996;4.458;2022-11-18T05:52:59;9.50;99.90
25112;DHT22;13092;51.996;4.458;2022-11-18T05:55:30;9.50;99.90
25112;DHT22;13092;51.996;4.458;2022-11-18T05:58:02;9.50;99.90
25112;DHT22;13092;51.996;4.458;2022-11-18T06:00:30;9.50;99.90
25112;DHT22;13092;51.996;4.458;2022-11-18T06:02:59;9.40;99.90
25112;DHT22;13092;51.996;4.458;2022-11-18T06:05:28;9.40;99.90
25112;DHT22;13092;51.996;4.458;2022-11-18T06:07:57;9.40;99.90
25112;DHT22;13092;51.996;4.458;2022-11-18T06:10:27;9.40;99.90
25112;DHT22;13092;51.996;4.458;2022-11-18T06:12:58;9.40;99.90
25112;DHT22;13092;51.996;4.458;2022-11-18T06:15:33;9.50;99.90
25112;DHT22;13092;51.996;4.458;2022-11-18T06:18:05;9.30;99.90
25112;DHT22;13092;51.996;4.458;2022-11-18T06:20:37;9.30;99.90
25112;DHT22;13092;51.996;4.458;2022-11-18T06:23:05;9.30;99.90
25112;DHT22;13092;51.996;4.458;2022-11-18T06:25:36;9.30;99.90
25112;DHT22;13092;51.996;4.458;2022-11-18T06:28:05;9.30;99.90
25112;DHT22;13092;51.996;4.458;2022-11-18T06:30:35;9.30;99.90
25112;DHT22;13092;51.996;4.458;2022-11-18T06:33:03;9.30;99.90
25112;DHT22;13092;51.996;4.458;2022-11-18T06:35:31;9.40;99.90
25112;DHT22;13092;51.996;4.458;2022-11-18T06:37:59;9.30;99.90
25112;DHT22;13092;51.996;4.458;2022-11-18T06:40:27;9.30;99.90
25112;DHT22;13092;51.996;4.458;2022-11-18T06:43:04;9.30;99.90
25112;DHT22;13092;51.996;4.458;2022-11-18T06:45:51;9.30;99.90
25112;DHT22;13092;51.996;4.458;2022-11-18T06:48:35;9.20;99.90
25112;DHT22;13092;51.996;4.458;2022-11-18T06:51:04;9.30;99.90
25112;DHT22;13092;51.996;4.458;2022-11-18T06:53:32;9.20;99.90
25112;DHT22;13092;51.996;4.458;2022-11-18T06:56:02;9.20;99.90
25112;DHT22;13092;51.996;4.458;2022-11-18T06:58:30;9.30;99.90
25112;DHT22;13092;51.996;4.458;2022-11-18T07:01:08;9.30;99.90
25112;DHT22;13092;51.996;4.458;2022-11-18T07:03:37;9.30;99.90
25112;DHT22;13092;51.996;4.458;2022-11-18T07:06:06;9.30;99.90
25112;DHT22;13092;51.996;4.458;2022-11-18T07:08:35;9.30;99.90
25112;DHT22;13092;51.996;4.458;2022-11-18T07:11:04;9.40;99.90
25112;DHT22;13092;51.996;4.458;2022-11-18T07:13:33;9.30;99.90
25112;DHT22;13092;51.996;4.458;2022-11-18T07:16:11;9.40;99.90
25112;DHT22;13092;51.996;4.458;2022-11-18T07:18:40;9.40;99.90
25112;DHT22;13092;51.996;4.458;2022-11-18T07:21:12;9.40;99.90
25112;DHT22;13092;51.996;4.458;2022-11-18T07:23:42;9.50;99.90
25112;DHT22;13092;51.996;4.458;2022-11-18T07:26:10;9.50;99.90
25112;DHT22;13092;51.996;4.458;2022-11-18T07:28:39;9.50;99.90
25112;DHT22;13092;51.996;4.458;2022-11-18T07:31:10;9.60;99.90
25112;DHT22;13092;51.996;4.458;2022-11-18T07:33:40;9.60;99.90
25112;DHT22;13092;51.996;4.458;2022-11-18T07:36:10;9.80;99.90
25112;DHT22;13092;51.996;4.458;2022-11-18T07:38:38;9.70;99.90
25112;DHT22;13092;51.996;4.458;2022-11-18T07:41:08;9.70;99.90
25112;DHT22;13092;51.996;4.458;2022-11-18T07:43:36;9.80;99.90
25112;DHT22;13092;51.996;4.458;2022-11-18T07:46:14;9.70;99.90
25112;DHT22;13092;51.996;4.458;2022-11-18T07:48:43;9.80;99.90
25112;DHT22;13092;51.996;4.458;2022-11-18T07:51:13;9.80;99.90
25112;DHT22;13092;51.996;4.458;2022-11-18T07:53:41;9.80;99.90
25112;DHT22;13092;51.996;4.458;2022-11-18T07:56:10;9.80;99.90
25112;DHT22;13092;51.996;4.458;2022-11-18T07:58:39;9.90;99.90
25112;DHT22;13092;51.996;4.458;2022-11-18T08:01:09;10.00;99.90
25112;DHT22;13092;51.996;4.458;2022-11-18T08:03:39;10.00;99.90
25112;DHT22;13092;51.996;4.458;2022-11-18T08:06:08;10.00;99.90
25112;DHT22;13092;51.996;4.458;2022-11-18T08:08:37;10.00;99.90
25112;DHT22;13092;51.996;4.458;2022-11-18T08:11:07;10.00;99.90
25112;DHT22;13092;51.996;4.458;2022-11-18T08:13:36;10.10;99.90
25112;DHT22;13092;51.996;4.458;2022-11-18T08:16:11;10.20;99.90
25112;DHT22;13092;51.996;4.458;2022-11-18T08:18:42;10.20;99.90
25112;DHT22;13092;51.996;4.458;2022-11-18T08:21:10;10.20;99.90
25112;DHT22;13092;51.996;4.458;2022-11-18T08:23:39;10.30;99.90
25112;DHT22;13092;51.996;4.458;2022-11-18T08:26:10;10.30;99.90
25112;DHT22;13092;51.996;4.458;2022-11-18T08:28:39;10.40;99.90
25112;DHT22;13092;51.996;4.458;2022-11-18T08:31:11;10.40;99.90
25112;DHT22;13092;51.996;4.458;2022-11-18T08:33:41;10.50;99.90
25112;DHT22;13092;51.996;4.458;2022-11-18T08:36:13;10.40;99.90
25112;DHT22;13092;51.996;4.458;2022-11-18T08:38:44;10.40;99.90
25112;DHT22;13092;51.996;4.458;2022-11-18T08:41:13;10.50;99.90
25112;DHT22;13092;51.996;4.458;2022-11-18T08:43:42;10.40;99.90
25112;DHT22;13092;51.996;4.458;2022-11-18T08:46:10;10.50;99.90
25112;DHT22;13092;51.996;4.458;2022-11-18T08:48:42;10.50;99.90
25112;DHT22;13092;51.996;4.458;2022-11-18T08:51:10;10.50;99.90
25112;DHT22;13092;51.996;4.458;2022-11-18T08:53:38;10.60;99.90
25112;DHT22;13092;51.996;4.458;2022-11-18T08:56:12;10.60;99.90
25112;DHT22;13092;51.996;4.458;2022-11-18T08:58:45;10.60;99.90
25112;DHT22;13092;51.996;4.458;2022-11-18T09:01:13;10.60;99.90
25112;DHT22;13092;51.996;4.458;2022-11-18T09:03:43;10.50;99.90
25112;DHT22;13092;51.996;4.458;2022-11-18T09:06:12;10.70;99.90
25112;DHT22;13092;51.996;4.458;2022-11-18T09:08:43;10.70;99.90
25112;DHT22;13092;51.996;4.458;2022-11-18T09:11:13;10.70;99.90
25112;DHT22;13092;51.996;4.458;2022-11-18T09:13:42;10.70;99.90
25112;DHT22;13092;51.996;4.458;2022-11-18T09:16:31;10.70;99.90
25112;DHT22;13092;51.996;4.458;2022-11-18T09:19:02;10.70;99.90
25112;DHT22;13092;51.996;4.458;2022-11-18T09:21:50;10.80;99.90
25112;DHT22;13092;51.996;4.458;2022-11-18T09:24:18;10.70;99.90
25112;DHT22;13092;51.996;4.458;2022-11-18T09:26:47;10.80;99.90
25112;DHT22;13092;51.996;4.458;2022-11-18T09:29:15;10.80;99.90
25112;DHT22;13092;51.996;4.458;2022-11-18T09:31:43;10.80;99.90
25112;DHT22;13092;51.996;4.458;2022-11-18T09:34:13;10.80;99.90
25112;DHT22;13092;51.996;4.458;2022-11-18T09:36:41;10.90;99.90
25112;DHT22;13092;51.996;4.458;2022-11-18T09:39:09;10.80;99.90
25112;DHT22;13092;51.996;4.458;2022-11-18T09:41:48;10.80;99.90
25112;DHT22;13092;51.996;4.458;2022-11-18T09:44:32;10.80;99.90
25112;DHT22;13092;51.996;4.458;2022-11-18T09:47:11;10.90;99.90
25112;DHT22;13092;51.996;4.458;2022-11-18T09:49:44;11.00;99.90
25112;DHT22;13092;51.996;4.458;2022-11-18T09:52:16;10.90;99.90
25112;DHT22;13092;51.996;4.458;2022-11-18T09:54:46;11.00;99.90
25112;DHT22;13092;51.996;4.458;2022-11-18T09:57:16;10.90;99.90
25112;DHT22;13092;51.996;4.458;2022-11-18T09:59:46;11.10;99.90
25112;DHT22;13092;51.996;4.458;2022-11-18T10:02:32;11.20;99.90
25112;DHT22;13092;51.996;4.458;2022-11-18T10:05:14;11.00;99.90
25112;DHT22;13092;51.996;4.458;2022-11-18T10:07:51;11.10;99.90
25112;DHT22;13092;51.996;4.458;2022-11-18T10:10:26;11.10;99.90
25112;DHT22;13092;51.996;4.458;2022-11-18T10:13:02;11.10;99.90
25112;DHT22;13092;51.996;4.458;2022-11-18T10:15:35;11.10;99.90
25112;DHT22;13092;51.996;4.458;2022-11-18T10:18:14;11.20;99.90
25112;DHT22;13092;51.996;4.458;2022-11-18T10:21:16;11.30;99.90
25112;DHT22;13092;51.996;4.458;2022-11-18T10:23:51;11.40;99.90
25112;DHT22;13092;51.996;4.458;2022-11-18T10:26:34;11.40;99.90
25112;DHT22;13092;51.996;4.458;2022-11-18T10:29:03;11.40;99.90
25112;DHT22;13092;51.996;4.458;2022-11-18T10:31:36;11.40;99.90
25112;DHT22;13092;51.996;4.458;2022-11-18T10:34:04;11.60;99.90
25112;DHT22;13092;51.996;4.458;2022-11-18T10:36:33;11.60;99.90
25112;DHT22;13092;51.996;4.458;2022-11-18T10:39:11;11.60;99.90
25112;DHT22;13092;51.996;4.458;2022-11-18T10:41:48;11.70;99.90
25112;DHT22;13092;51.996;4.458;2022-11-18T10:44:29;11.60;99.90
25112;DHT22;13092;51.996;4.458;2022-11-18T10:47:20;11.70;99.90
25112;DHT22;13092;51.996;4.458;2022-11-18T10:49:49;11.80;99.90
25112;DHT22;13092;51.996;4.458;2022-11-18T10:52:19;11.70;99.90
25112;DHT22;13092;51.996;4.458;2022-11-18T10:55:17;11.70;99.90
25112;DHT22;13092;51.996;4.458;2022-11-18T10:57:47;11.80;99.90
25112;DHT22;13092;51.996;4.458;2022-11-18T11:00:32;12.00;99.90
25112;DHT22;13092;51.996;4.458;2022-11-18T11:03:19;12.00;99.90
25112;DHT22;13092;51.996;4.458;2022-11-18T11:06:17;11.90;99.90
25112;DHT22;13092;51.996;4.458;2022-11-18T11:08:51;12.00;99.90
25112;DHT22;13092;51.996;4.458;2022-11-18T11:11:23;12.00;99.90
25112;DHT22;13092;51.996;4.458;2022-11-18T11:13:55;12.00;99.90
25112;DHT22;13092;51.996;4.458;2022-11-18T11:16:25;12.00;99.90
25112;DHT22;13092;51.996;4.458;2022-11-18T11:18:57;11.90;99.90
25112;DHT22;13092;51.996;4.458;2022-11-18T11:21:27;11.90;99.90
25112;DHT22;13092;51.996;4.458;2022-11-18T11:23:57;11.90;99.90
25112;DHT22;13092;51.996;4.458;2022-11-18T11:26:31;11.90;99.90
25112;DHT22;13092;51.996;4.458;2022-11-18T11:35:24;11.90;99.90
25112;DHT22;13092;51.996;4.458;2022-11-18T11:37:56;12.10;99.90
25112;DHT22;13092;51.996;4.458;2022-11-18T11:40:33;12.00;99.90
25112;DHT22;13092;51.996;4.458;2022-11-18T11:43:16;11.90;99.90
25112;DHT22;13092;51.996;4.458;2022-11-18T11:46:14;11.90;99.90
25112;DHT22;13092;51.996;4.458;2022-11-18T11:48:52;12.00;99.90
25112;DHT22;13092;51.996;4.458;2022-11-18T11:51:29;12.00;99.90
25112;DHT22;13092;51.996;4.458;2022-11-18T11:54:10;12.10;99.90
25112;DHT22;13092;51.996;4.458;2022-11-18T11:56:46;12.00;99.90
25112;DHT22;13092;51.996;4.458;2022-11-18T11:59:21;12.30;99.90
25112;DHT22;13092;51.996;4.458;2022-11-18T12:02:18;12.20;99.90
25112;DHT22;13092;51.996;4.458;2022-11-18T12:04:51;12.20;99.90
25112;DHT22;13092;51.996;4.458;2022-11-18T12:07:22;12.20;99.90
25112;DHT22;13092;51.996;4.458;2022-11-18T12:10:04;12.10;99.90
25112;DHT22;13092;51.996;4.458;2022-11-18T12:12:44;12.10;99.90
25112;DHT22;13092;51.996;4.458;2022-11-18T12:15:24;12.10;99.90
25112;DHT22;13092;51.996;4.458;2022-11-18T12:17:57;12.10;99.90
25112;DHT22;13092;51.996;4.458;2022-11-18T12:20:41;12.10;99.90
25112;DHT22;13092;51.996;4.458;2022-11-18T12:23:14;12.00;99.90
25112;DHT22;13092;51.996;4.458;2022-11-18T12:25:56;12.00;99.90
25112;DHT22;13092;51.996;4.458;2022-11-18T12:28:28;12.10;99.90
25112;DHT22;13092;51.996;4.458;2022-11-18T12:31:34;12.10;99.90
25112;DHT22;13092;51.996;4.458;2022-11-18T12:34:18;12.10;99.90
25112;DHT22;13092;51.996;4.458;2022-11-18T12:36:55;12.10;99.90
25112;DHT22;13092;51.996;4.458;2022-11-18T12:39:45;12.10;99.90
25112;DHT22;13092;51.996;4.458;2022-11-18T12:42:45;12.10;99.90
25112;DHT22;13092;51.996;4.458;2022-11-18T12:45:56;12.10;99.90
25112;DHT22;13092;51.996;4.458;2022-11-18T12:48:45;12.00;99.90
25112;DHT22;13092;51.996;4.458;2022-11-18T12:51:45;12.10;99.90
25112;DHT22;13092;51.996;4.458;2022-11-18T12:54:24;11.90;99.90
25112;DHT22;13092;51.996;4.458;2022-11-18T12:56:54;11.90;99.90
25112;DHT22;13092;51.996;4.458;2022-11-18T12:59:27;11.90;99.90
25112;DHT22;13092;51.996;4.458;2022-11-18T13:02:14;11.90;99.90
25112;DHT22;13092;51.996;4.458;2022-11-18T13:05:05;11.90;99.90
25112;DHT22;13092;51.996;4.458;2022-11-18T13:07:40;11.90;99.90
25112;DHT22;13092;51.996;4.458;2022-11-18T13:10:30;11.90;99.90
25112;DHT22;13092;51.996;4.458;2022-11-18T13:12:59;11.90;99.90
25112;DHT22;13092;51.996;4.458;2022-11-18T13:15:27;11.90;99.90
25112;DHT22;13092;51.996;4.458;2022-11-18T13:18:16;11.90;99.90
25112;DHT22;13092;51.996;4.458;2022-11-18T13:20:54;11.90;99.90
25112;DHT22;13092;51.996;4.458;2022-11-18T13:23:28;11.90;99.90
25112;DHT22;13092;51.996;4.458;2022-11-18T13:26:18;11.90;99.90
25112;DHT22;13092;51.996;4.458;2022-11-18T13:29:02;11.80;99.90
25112;DHT22;13092;51.996;4.458;2022-11-18T13:31:39;11.90;99.90
25112;DHT22;13092;51.996;4.458;2022-11-18T13:34:15;11.80;99.90
25112;DHT22;13092;51.996;4.458;2022-11-18T13:36:45;11.90;99.90
25112;DHT22;13092;51.996;4.458;2022-11-18T13:39:19;11.90;99.90
25112;DHT22;13092;51.996;4.458;2022-11-18T13:41:59;11.80;99.90
25112;DHT22;13092;51.996;4.458;2022-11-18T13:44:28;11.80;99.90
25112;DHT22;13092;51.996;4.458;2022-11-18T13:47:05;11.90;99.90
25112;DHT22;13092;51.996;4.458;2022-11-18T13:49:44;11.80;99.90
25112;DHT22;13092;51.996;4.458;2022-11-18T13:52:19;11.80;99.90
25112;DHT22;13092;51.996;4.458;2022-11-18T13:54:50;11.70;99.90
25112;DHT22;13092;51.996;4.458;2022-11-18T13:57:22;11.80;99.90
25112;DHT22;13092;51.996;4.458;2022-11-18T13:59:52;11.90;99.90
25112;DHT22;13092;51.996;4.458;2022-11-18T14:02:21;11.90;99.90
25112;DHT22;13092;51.996;4.458;2022-11-18T14:04:56;11.80;99.90
25112;DHT22;13092;51.996;4.458;2022-11-18T14:07:30;11.90;99.90
25112;DHT22;13092;51.996;4.458;2022-11-18T14:10:00;11.90;99.90
25112;DHT22;13092;51.996;4.458;2022-11-18T14:12:30;11.90;99.90
25112;DHT22;13092;51.996;4.458;2022-11-18T14:15:12;11.90;99.90
25112;DHT22;13092;51.996;4.458;2022-11-18T14:17:49;11.90;99.90
25112;DHT22;13092;51.996;4.458;2022-11-18T14:20:20;11.90;99.90
25112;DHT22;13092;51.996;4.458;2022-11-18T14:22:54;12.00;99.90
25112;DHT22;13092;51.996;4.458;2022-11-18T14:25:26;12.00;99.90
25112;DHT22;13092;51.996;4.458;2022-11-18T14:27:56;12.00;99.90
25112;DHT22;13092;51.996;4.458;2022-11-18T14:30:34;12.00;99.90
25112;DHT22;13092;51.996;4.458;2022-11-18T14:33:14;12.10;99.90
25112;DHT22;13092;51.996;4.458;2022-11-18T14:35:48;12.00;99.90
25112;DHT22;13092;51.996;4.458;2022-11-18T14:38:18;12.20;99.90
25112;DHT22;13092;51.996;4.458;2022-11-18T14:41:09;12.00;99.90
25112;DHT22;13092;51.996;4.458;2022-11-18T14:43:37;12.00;99.90
25112;DHT22;13092;51.996;4.458;2022-11-18T14:46:11;12.00;99.90
25112;DHT22;13092;51.996;4.458;2022-11-18T14:48:40;12.00;99.90
25112;DHT22;13092;51.996;4.458;2022-11-18T14:51:13;12.00;99.90
25112;DHT22;13092;51.996;4.458;2022-11-18T14:53:42;12.10;99.90
25112;DHT22;13092;51.996;4.458;2022-11-18T14:56:13;12.10;99.90
25112;DHT22;13092;51.996;4.458;2022-11-18T14:58:44;12.00;99.90
25112;DHT22;13092;51.996;4.458;2022-11-18T15:01:12;12.10;99.90
25112;DHT22;13092;51.996;4.458;2022-11-18T15:03:40;12.10;99.90
25112;DHT22;13092;51.996;4.458;2022-11-18T15:06:13;12.00;99.90
25112;DHT22;13092;51.996;4.458;2022-11-18T15:08:45;12.00;99.90
25112;DHT22;13092;51.996;4.458;2022-11-18T15:11:14;12.00;99.90
25112;DHT22;13092;51.996;4.458;2022-11-18T15:13:42;12.00;99.90
25112;DHT22;13092;51.996;4.458;2022-11-18T15:16:12;12.00;99.90
25112;DHT22;13092;51.996;4.458;2022-11-18T15:18:46;12.00;99.90
25112;DHT22;13092;51.996;4.458;2022-11-18T15:21:16;12.00;99.90
25112;DHT22;13092;51.996;4.458;2022-11-18T15:23:45;11.90;99.90
25112;DHT22;13092;51.996;4.458;2022-11-18T15:26:18;12.00;99.90
25112;DHT22;13092;51.996;4.458;2022-11-18T15:28:47;12.00;99.90
25112;DHT22;13092;51.996;4.458;2022-11-18T15:31:19;11.90;99.90
25112;DHT22;13092;51.996;4.458;2022-11-18T15:33:48;11.90;99.90
25112;DHT22;13092;51.996;4.458;2022-11-18T15:36:20;11.90;99.90
25112;DHT22;13092;51.996;4.458;2022-11-18T15:38:49;11.90;99.90
25112;DHT22;13092;51.996;4.458;2022-11-18T15:41:19;11.80;99.90
25112;DHT22;13092;51.996;4.458;2022-11-18T15:43:48;11.90;99.90
25112;DHT22;13092;51.996;4.458;2022-11-18T15:46:18;11.80;99.90
25112;DHT22;13092;51.996;4.458;2022-11-18T15:48:46;11.80;99.90
25112;DHT22;13092;51.996;4.458;2022-11-18T15:51:22;11.80;99.90
25112;DHT22;13092;51.996;4.458;2022-11-18T15:53:50;11.80;99.90
25112;DHT22;13092;51.996;4.458;2022-11-18T15:56:26;11.80;99.90
25112;DHT22;13092;51.996;4.458;2022-11-18T15:58:55;11.80;99.90
25112;DHT22;13092;51.996;4.458;2022-11-18T16:01:24;11.90;99.90
25112;DHT22;13092;51.996;4.458;2022-11-18T16:03:53;11.90;99.90
25112;DHT22;13092;51.996;4.458;2022-11-18T16:06:24;11.90;99.90
25112;DHT22;13092;51.996;4.458;2022-11-18T16:08:52;11.90;99.90
25112;DHT22;13092;51.996;4.458;2022-11-18T16:11:26;11.80;99.90
25112;DHT22;13092;51.996;4.458;2022-11-18T16:14:23;11.90;99.90
25112;DHT22;13092;51.996;4.458;2022-11-18T16:16:53;11.80;99.90
25112;DHT22;13092;51.996;4.458;2022-11-18T16:19:23;11.80;99.90
25112;DHT22;13092;51.996;4.458;2022-11-18T16:21:55;11.70;99.90